Time;durP1;ratioP1;P1;durP2;ratioP2;P2;SDS_P1;SDS_P2;PMS_P1;PMS_P2;Temp;Humidity;BMP_temperature;BMP_pressure;BME280_temperature;BME280_humidity;BME280_pressure;Samples;Min_cycle;Max_cycle;Signal;HPM_P1;HPM_P2
2021/12/10 00:01:33;;;;;;;52.75;33.97;;;4.60;99.90;;;;;;5001541;28;20097;-48
2021/12/10 00:04:00;;;;;;;;;;;4.70;99.90;;;;;;4958110;28;20046;-47
2021/12/10 00:06:34;;;;;;;44.03;31.50;;;4.70;99.90;;;;;;4978204;28;19970;-48
2021/12/10 00:09:07;;;;;;;50.30;32.13;;;4.70;99.90;;;;;;5005273;28;20077;-48
2021/12/10 00:11:48;;;;;;;44.63;30.67;;;4.60;99.90;;;;;;4984733;28;20135;-47
2021/12/10 00:14:15;;;;;;;49.53;32.67;;;4.70;99.90;;;;;;4990328;28;20045;-49
2021/12/10 00:16:44;;;;;;;47.60;30.95;;;4.70;99.90;;;;;;5004395;28;20065;-47
2021/12/10 00:19:25;;;;;;;45.47;32.53;;;4.70;99.90;;;;;;4992990;28;20128;-49
2021/12/10 00:21:52;;;;;;;44.38;31.30;;;4.70;99.90;;;;;;4992644;28;20145;-48
2021/12/10 00:24:21;;;;;;;48.28;32.45;;;4.70;99.90;;;;;;4976743;28;20046;-47
2021/12/10 00:26:47;;;;;;;46.95;30.13;;;4.70;99.90;;;;;;5010580;28;20041;-51
2021/12/10 00:29:15;;;;;;;44.45;30.50;;;4.70;99.90;;;;;;5009989;28;20127;-49
2021/12/10 00:31:51;;;;;;;46.22;32.45;;;4.70;99.90;;;;;;5010037;28;20042;-50
2021/12/10 00:34:21;;;;;;;47.97;30.63;;;4.80;99.90;;;;;;4992761;28;20050;-49
2021/12/10 00:36:50;;;;;;;48.28;30.33;;;4.70;99.90;;;;;;5010652;28;20085;-61
2021/12/10 00:39:22;;;;;;;47.95;30.58;;;4.70;99.90;;;;;;5009961;28;20131;-62
2021/12/10 00:41:49;;;;;;;46.35;29.73;;;4.80;99.90;;;;;;5010443;28;20566;-61
2021/12/10 00:44:16;;;;;;;43.88;30.25;;;4.70;99.90;;;;;;4992134;28;20045;-61
2021/12/10 00:46:42;;;;;;;46.92;31.95;;;4.70;99.90;;;;;;4977151;28;20054;-62
2021/12/10 00:49:09;;;;;;;46.95;30.65;;;4.70;99.90;;;;;;4990602;28;20121;-63
2021/12/10 00:51:37;;;;;;;49.53;31.33;;;4.70;99.90;;;;;;4957098;28;20065;-61
2021/12/10 00:54:05;;;;;;;48.28;31.67;;;4.70;99.90;;;;;;4972996;28;20054;-61
2021/12/10 00:56:32;;;;;;;42.58;30.42;;;4.70;99.90;;;;;;4990563;28;20103;-49
2021/12/10 00:58:59;;;;;;;44.75;30.67;;;4.70;99.90;;;;;;4972486;28;20054;-51
2021/12/10 01:01:28;;;;;;;45.15;31.02;;;4.80;99.90;;;;;;4969455;28;20133;-50
2021/12/10 01:04:04;;;;;;;48.67;30.65;;;4.70;99.90;;;;;;4976165;28;20042;-49
2021/12/10 01:06:30;;;;;;;43.67;30.08;;;4.80;99.90;;;;;;5009540;28;20865;-52
2021/12/10 01:09:00;;;;;;;41.80;29.17;;;4.80;99.90;;;;;;4991905;28;20049;-48
2021/12/10 01:11:33;;;;;;;38.17;28.92;;;4.70;99.90;;;;;;4979171;28;20069;-48
2021/12/10 01:14:12;;;;;;;43.85;27.02;;;4.70;99.90;;;;;;4990139;28;20174;-49
2021/12/10 01:27:33;;;;;;;39.95;26.73;;;4.70;99.90;;;;;;5005291;28;20046;-61
2021/12/10 01:30:10;;;;;;;39.35;25.67;;;4.70;99.90;;;;;;4964592;28;20049;-61
2021/12/10 01:32:41;;;;;;;42.47;24.80;;;4.70;99.90;;;;;;5010456;28;20077;-61
2021/12/10 01:35:11;;;;;;;37.28;25.30;;;4.70;99.90;;;;;;4994441;28;20077;-62
2021/12/10 01:37:37;;;;;;;36.50;20.98;;;4.60;99.90;;;;;;4965020;28;20116;-61
2021/12/10 01:40:07;;;;;;;34.58;22.17;;;4.60;99.90;;;;;;4993369;28;20058;-61
2021/12/10 01:42:44;;;;;;;31.33;22.05;;;4.60;99.90;;;;;;4977582;28;20056;-52
2021/12/10 01:45:21;;;;;;;29.20;19.67;;;4.60;99.90;;;;;;5002794;28;20753;-52
2021/12/10 01:47:58;;;;;;;30.13;20.35;;;4.60;99.90;;;;;;4976434;28;20401;-51
2021/12/10 01:50:26;;;;;;;28.52;20.27;;;4.60;99.90;;;;;;4993382;28;20042;-46
2021/12/10 01:52:55;;;;;;;30.48;21.63;;;4.60;99.90;;;;;;5010542;28;20049;-52
2021/12/10 01:55:24;;;;;;;31.10;20.23;;;4.60;99.90;;;;;;5013252;28;20053;-47
2021/12/10 01:57:52;;;;;;;30.45;20.70;;;4.60;99.90;;;;;;5012920;28;20129;-49
2021/12/10 02:00:22;;;;;;;28.27;19.80;;;4.60;99.90;;;;;;5012591;28;20108;-47
2021/12/10 02:02:50;;;;;;;30.40;20.15;;;4.60;99.90;;;;;;4995164;28;20497;-48
2021/12/10 02:05:17;;;;;;;31.17;19.88;;;4.50;99.90;;;;;;4995178;28;20477;-48
2021/12/10 02:07:45;;;;;;;34.30;21.13;;;4.50;99.90;;;;;;5012537;28;20157;-49
2021/12/10 02:10:14;;;;;;;27.00;19.65;;;4.50;99.90;;;;;;5012237;28;20501;-49
2021/12/10 02:12:40;;;;;;;26.98;20.20;;;4.50;99.90;;;;;;5012523;28;20077;-47
2021/12/10 02:15:07;;;;;;;27.35;18.25;;;4.50;99.90;;;;;;5013177;28;20057;-49
2021/12/10 02:17:37;;;;;;;31.17;20.70;;;4.50;99.90;;;;;;4994901;28;20631;-48
2021/12/10 02:20:12;;;;;;;28.85;20.35;;;4.40;99.90;;;;;;4978677;28;20046;-47
2021/12/10 02:22:38;;;;;;;30.33;20.90;;;4.50;99.90;;;;;;5013214;28;20046;-49
2021/12/10 02:25:06;;;;;;;34.10;20.90;;;4.50;99.90;;;;;;4995020;28;20049;-53
2021/12/10 02:27:33;;;;;;;32.40;22.08;;;4.40;99.90;;;;;;4995007;28;20048;-51
2021/12/10 02:29:59;;;;;;;27.75;19.75;;;4.40;99.90;;;;;;4978574;28;20057;-47
2021/12/10 02:32:26;;;;;;;30.92;20.10;;;4.40;99.90;;;;;;4994958;28;20128;-47
2021/12/10 02:34:54;;;;;;;31.52;21.15;;;4.40;99.90;;;;;;4962614;28;20052;-48
2021/12/10 02:37:21;;;;;;;29.60;20.67;;;4.40;99.90;;;;;;5008742;28;20519;-49
2021/12/10 02:39:48;;;;;;;29.52;20.33;;;4.40;99.90;;;;;;5004013;28;20484;-48
2021/12/10 02:42:14;;;;;;;27.58;19.75;;;4.40;99.90;;;;;;5012496;28;20042;-48
2021/12/10 02:44:40;;;;;;;27.23;20.50;;;4.40;99.90;;;;;;4985364;28;20050;-48
2021/12/10 02:47:06;;;;;;;29.05;20.65;;;4.40;99.90;;;;;;4973430;28;20053;-52
2021/12/10 02:49:33;;;;;;;29.55;20.90;;;4.40;99.90;;;;;;4978356;28;20542;-53
2021/12/10 02:51:59;;;;;;;29.23;19.80;;;4.40;99.90;;;;;;4993965;28;20046;-50
2021/12/10 02:54:33;;;;;;;24.45;19.73;;;4.40;99.90;;;;;;5010428;28;20061;-46
2021/12/10 02:57:06;;;;;;;39.28;20.30;;;4.40;99.90;;;;;;4994635;28;20461;-47
2021/12/10 02:59:33;;;;;;;35.65;19.85;;;4.40;99.90;;;;;;4994160;28;20396;-48
2021/12/10 03:02:00;;;;;;;32.72;19.50;;;4.40;99.90;;;;;;4962006;28;20513;-47
2021/12/10 03:04:27;;;;;;;27.52;21.27;;;4.50;99.90;;;;;;4994745;28;20436;-47
2021/12/10 03:06:58;;;;;;;27.95;18.67;;;4.40;99.90;;;;;;5011779;28;20041;-50
2021/12/10 03:09:26;;;;;;;30.23;20.55;;;4.40;99.90;;;;;;4977804;28;20061;-48
2021/12/10 03:11:56;;;;;;;31.05;19.65;;;4.40;99.90;;;;;;5011386;28;20085;-48
2021/12/10 03:14:26;;;;;;;29.52;19.85;;;4.40;99.90;;;;;;5011267;28;20057;-48
2021/12/10 03:16:54;;;;;;;30.08;21.40;;;4.40;99.90;;;;;;5011409;28;20120;-47
2021/12/10 03:19:21;;;;;;;31.58;22.35;;;4.40;99.90;;;;;;4994004;28;20092;-49
2021/12/10 03:21:48;;;;;;;28.45;23.58;;;4.40;99.90;;;;;;4977530;28;20061;-52
2021/12/10 03:24:17;;;;;;;31.15;24.83;;;4.40;99.90;;;;;;4993673;28;20088;-51
2021/12/10 03:26:43;;;;;;;31.95;25.10;;;4.40;99.90;;;;;;4993684;28;20100;-48
2021/12/10 03:29:10;;;;;;;32.53;24.05;;;4.40;99.90;;;;;;5011372;28;20157;-48
2021/12/10 03:31:36;;;;;;;28.15;23.60;;;4.30;99.90;;;;;;4993734;28;20436;-47
2021/12/10 03:34:04;;;;;;;32.97;23.88;;;4.30;99.90;;;;;;4993308;28;20136;-47
2021/12/10 03:36:31;;;;;;;27.90;23.85;;;4.30;99.90;;;;;;5011131;28;20057;-47
2021/12/10 03:38:57;;;;;;;30.08;23.88;;;4.30;99.90;;;;;;5011348;28;20080;-46
2021/12/10 03:41:23;;;;;;;31.45;23.73;;;4.20;99.90;;;;;;4993032;28;20654;-50
2021/12/10 03:43:51;;;;;;;31.33;24.48;;;4.20;99.90;;;;;;4993919;28;20045;-61
2021/12/10 03:46:18;;;;;;;30.60;24.45;;;4.10;99.90;;;;;;4992878;28;20057;-61
2021/12/10 03:48:45;;;;;;;30.08;24.23;;;4.10;99.90;;;;;;4992941;28;20053;-61
2021/12/10 03:51:17;;;;;;;33.38;24.50;;;4.10;99.90;;;;;;4976681;28;20050;-61
2021/12/10 03:53:44;;;;;;;31.15;24.70;;;4.10;99.90;;;;;;5010629;28;20060;-61
2021/12/10 03:56:16;;;;;;;33.05;26.67;;;4.00;99.90;;;;;;5009959;28;20085;-61
2021/12/10 03:58:43;;;;;;;32.97;25.45;;;4.00;99.90;;;;;;5009689;28;20058;-49
2021/12/10 04:01:12;;;;;;;31.80;24.00;;;4.00;99.90;;;;;;5004855;28;20378;-51
2021/12/10 04:03:42;;;;;;;28.80;22.55;;;4.00;99.90;;;;;;5009493;28;20494;-50
2021/12/10 04:06:08;;;;;;;31.00;24.75;;;4.00;99.90;;;;;;5004879;28;20050;-47
2021/12/10 04:08:35;;;;;;;34.33;25.38;;;3.90;99.90;;;;;;4974350;28;20056;-61
2021/12/10 04:11:02;;;;;;;32.05;24.48;;;3.90;99.90;;;;;;5010451;28;20377;-61
2021/12/10 04:13:29;;;;;;;29.67;24.08;;;3.80;99.90;;;;;;5010818;28;20558;-61
2021/12/10 04:15:56;;;;;;;31.52;22.77;;;3.80;99.90;;;;;;5010821;28;20515;-61
2021/12/10 04:18:22;;;;;;;31.25;23.83;;;3.80;99.90;;;;;;5011030;28;20473;-47
2021/12/10 04:20:49;;;;;;;36.80;25.05;;;3.70;99.90;;;;;;5010510;28;20056;-47
2021/12/10 04:23:19;;;;;;;28.85;23.85;;;3.70;99.90;;;;;;5010056;28;20161;-51
2021/12/10 04:25:45;;;;;;;33.28;24.67;;;3.60;99.90;;;;;;4992711;28;20056;-50
2021/12/10 04:28:15;;;;;;;30.88;22.83;;;3.60;99.90;;;;;;4992904;28;20125;-47
2021/12/10 04:30:45;;;;;;;31.45;24.10;;;3.50;99.90;;;;;;5010795;28;20061;-63
2021/12/10 04:33:15;;;;;;;29.17;23.40;;;3.40;99.90;;;;;;4992126;28;20390;-61
2021/12/10 04:35:43;;;;;;;31.33;23.27;;;3.40;99.90;;;;;;4999131;28;20052;-61
2021/12/10 04:38:09;;;;;;;28.80;21.88;;;3.30;99.90;;;;;;4992468;28;20085;-61
2021/12/10 04:40:36;;;;;;;33.45;22.52;;;3.30;99.90;;;;;;4998606;28;20177;-61
2021/12/10 04:43:03;;;;;;;31.50;22.45;;;3.30;99.90;;;;;;5008753;28;20553;-61
2021/12/10 04:45:29;;;;;;;25.63;21.92;;;3.20;99.90;;;;;;5009975;28;20054;-61
2021/12/10 04:47:55;;;;;;;32.55;23.83;;;3.20;99.90;;;;;;5009965;28;20045;-61
2021/12/10 04:50:26;;;;;;;32.20;24.73;;;3.10;99.90;;;;;;4991982;28;20120;-61
2021/12/10 04:52:52;;;;;;;29.20;22.20;;;3.10;99.90;;;;;;4976719;28;20103;-61
2021/12/10 04:55:19;;;;;;;33.97;23.25;;;3.00;99.90;;;;;;4975878;28;20053;-61
2021/12/10 04:57:46;;;;;;;29.08;23.95;;;3.00;99.90;;;;;;5010050;28;20050;-61
2021/12/10 05:00:17;;;;;;;30.20;23.40;;;3.00;99.90;;;;;;4974809;28;20493;-46
2021/12/10 05:02:44;;;;;;;37.83;25.35;;;2.90;99.90;;;;;;4976425;28;20085;-46
2021/12/10 05:05:12;;;;;;;30.63;20.52;;;2.90;99.90;;;;;;4972788;28;20440;-48
2021/12/10 05:07:38;;;;;;;36.10;24.58;;;2.90;99.90;;;;;;4995191;28;20573;-48
2021/12/10 05:10:08;;;;;;;35.70;26.75;;;2.90;99.90;;;;;;4994284;28;20100;-48
2021/12/10 05:12:34;;;;;;;33.78;24.30;;;2.90;99.90;;;;;;4995818;28;20057;-48
2021/12/10 05:15:02;;;;;;;34.20;27.27;;;2.80;99.90;;;;;;4994586;28;20467;-47
2021/12/10 05:17:31;;;;;;;34.65;26.73;;;2.80;99.90;;;;;;4972041;28;20054;-51
2021/12/10 05:20:00;;;;;;;37.80;27.27;;;2.80;99.90;;;;;;4960633;28;20128;-52
2021/12/10 05:22:27;;;;;;;35.97;27.77;;;2.80;99.90;;;;;;5004899;28;20513;-49
2021/12/10 05:24:53;;;;;;;34.60;24.48;;;2.80;99.90;;;;;;5002424;28;20589;-47
2021/12/10 05:27:20;;;;;;;35.55;25.05;;;2.80;99.90;;;;;;5007528;28;20456;-46
2021/12/10 05:29:46;;;;;;;35.75;26.27;;;2.70;99.90;;;;;;5013462;28;20054;-47
2021/12/10 05:32:16;;;;;;;33.85;24.92;;;2.70;99.90;;;;;;4979494;28;20440;-46
2021/12/10 05:34:44;;;;;;;33.38;23.40;;;2.60;99.90;;;;;;4996183;28;20126;-47
2021/12/10 05:37:10;;;;;;;30.40;24.20;;;2.60;99.90;;;;;;5013742;28;20131;-46
2021/12/10 05:39:36;;;;;;;26.75;22.88;;;2.60;99.90;;;;;;5013886;28;20045;-47
2021/12/10 05:42:04;;;;;;;27.95;22.40;;;2.60;99.90;;;;;;4995485;28;20053;-46
2021/12/10 05:44:31;;;;;;;28.75;22.88;;;2.60;99.90;;;;;;4995875;28;20046;-50
2021/12/10 05:46:59;;;;;;;29.42;22.95;;;2.50;99.90;;;;;;4995602;28;20057;-47
2021/12/10 05:49:27;;;;;;;29.42;22.70;;;2.50;99.90;;;;;;4950374;28;20046;-46
2021/12/10 05:51:53;;;;;;;25.67;18.42;;;2.50;99.90;;;;;;4995289;28;20050;-48
2021/12/10 05:54:19;;;;;;;25.80;22.05;;;2.50;99.90;;;;;;4995128;28;20057;-46
2021/12/10 05:56:45;;;;;;;27.25;21.02;;;2.40;99.90;;;;;;4995305;28;20060;-46
2021/12/10 05:59:11;;;;;;;28.45;21.40;;;2.40;99.90;;;;;;5012994;28;20132;-48
2021/12/10 06:01:37;;;;;;;28.83;22.05;;;2.30;99.90;;;;;;5012459;28;20065;-47
2021/12/10 06:04:04;;;;;;;27.95;21.17;;;2.30;99.90;;;;;;4968179;28;20050;-47
2021/12/10 06:06:32;;;;;;;27.60;21.13;;;2.30;99.90;;;;;;5007679;28;20066;-47
2021/12/10 06:09:01;;;;;;;27.08;20.10;;;2.20;99.90;;;;;;5009024;28;20037;-46
2021/12/10 06:11:27;;;;;;;24.73;19.70;;;2.20;99.90;;;;;;5004998;28;20567;-46
2021/12/10 06:13:54;;;;;;;25.50;19.88;;;2.20;99.90;;;;;;5001135;28;20523;-48
2021/12/10 06:16:20;;;;;;;25.00;20.02;;;2.10;99.90;;;;;;4975307;28;20059;-47
2021/12/10 06:18:46;;;;;;;22.70;17.17;;;2.10;99.90;;;;;;5005168;28;20068;-46
2021/12/10 06:21:13;;;;;;;24.45;18.88;;;2.10;99.90;;;;;;4970777;28;20062;-47
2021/12/10 06:23:39;;;;;;;28.13;21.27;;;2.10;99.90;;;;;;4987781;28;20512;-48
2021/12/10 06:26:06;;;;;;;26.38;20.98;;;2.10;99.90;;;;;;4990035;28;20046;-48
2021/12/10 06:28:33;;;;;;;28.00;19.95;;;2.00;99.90;;;;;;5003125;28;20124;-47
2021/12/10 06:30:59;;;;;;;27.58;19.48;;;2.00;99.90;;;;;;4995954;28;20137;-47
2021/12/10 06:33:28;;;;;;;27.90;22.08;;;1.90;99.90;;;;;;4975714;28;20490;-46
2021/12/10 06:35:57;;;;;;;21.98;18.52;;;2.00;99.90;;;;;;5003887;28;20133;-48
2021/12/10 06:38:24;;;;;;;27.20;19.88;;;1.90;99.90;;;;;;4991751;28;20073;-48
2021/12/10 06:40:51;;;;;;;25.77;18.55;;;1.90;99.90;;;;;;4991783;28;20674;-47
2021/12/10 06:43:19;;;;;;;29.40;20.08;;;1.80;99.90;;;;;;4974342;28;20049;-46
2021/12/10 06:45:46;;;;;;;27.92;20.38;;;1.80;99.90;;;;;;5001522;28;20527;-47
2021/12/10 06:48:13;;;;;;;28.98;19.63;;;1.80;99.90;;;;;;5012267;28;20050;-48
2021/12/10 06:50:46;;;;;;;30.55;20.15;;;1.80;99.90;;;;;;5011857;28;20053;-48
2021/12/10 06:53:12;;;;;;;23.02;17.08;;;1.70;99.90;;;;;;4994047;28;20038;-47
2021/12/10 06:55:38;;;;;;;23.23;14.77;;;1.80;99.90;;;;;;4979275;28;20246;-49
2021/12/10 06:58:06;;;;;;;26.55;19.58;;;1.70;99.90;;;;;;5008972;28;20044;-60
2021/12/10 07:00:41;;;;;;;25.70;19.38;;;1.70;99.90;;;;;;5008011;28;20461;-60
2021/12/10 07:03:12;;;;;;;24.98;18.13;;;1.70;99.90;;;;;;5003853;28;20045;-60
2021/12/10 07:05:39;;;;;;;25.50;18.55;;;1.70;99.90;;;;;;5008551;28;20101;-60
2021/12/10 07:08:05;;;;;;;26.27;19.52;;;1.70;99.90;;;;;;4977474;28;20042;-60
2021/12/10 07:10:32;;;;;;;24.25;17.77;;;1.60;99.90;;;;;;4993804;28;20050;-47
2021/12/10 07:12:59;;;;;;;27.27;18.10;;;1.70;99.90;;;;;;4976260;28;20258;-47
2021/12/10 07:15:25;;;;;;;24.13;18.10;;;1.60;99.90;;;;;;4984970;28;20523;-52
2021/12/10 07:17:52;;;;;;;21.58;17.17;;;1.60;99.90;;;;;;4976776;28;20055;-46
2021/12/10 07:20:23;;;;;;;24.05;17.50;;;1.60;99.90;;;;;;5010718;28;20062;-49
2021/12/10 07:22:50;;;;;;;25.52;16.50;;;1.60;99.90;;;;;;5011494;28;20050;-48
2021/12/10 07:25:17;;;;;;;23.77;17.10;;;1.60;99.90;;;;;;5011079;28;20505;-51
2021/12/10 07:27:44;;;;;;;24.95;17.98;;;1.60;99.90;;;;;;5010846;28;20045;-50
2021/12/10 07:30:10;;;;;;;22.67;14.55;;;1.60;99.90;;;;;;4993489;28;20058;-47
2021/12/10 07:32:37;;;;;;;21.05;15.98;;;1.60;99.90;;;;;;5010466;28;20125;-47
2021/12/10 07:35:06;;;;;;;21.23;16.40;;;1.60;99.90;;;;;;4992914;28;20065;-49
2021/12/10 07:37:33;;;;;;;24.42;16.80;;;1.50;99.90;;;;;;4993225;28;20089;-48
2021/12/10 07:39:59;;;;;;;21.73;15.93;;;1.50;99.90;;;;;;5010811;28;20057;-60
2021/12/10 07:42:25;;;;;;;20.02;14.75;;;1.60;99.90;;;;;;4977248;28;20050;-61
2021/12/10 07:44:54;;;;;;;20.70;14.43;;;1.50;99.90;;;;;;4992713;28;20129;-60
2021/12/10 07:47:21;;;;;;;23.73;15.60;;;1.50;99.90;;;;;;4993599;28;20054;-60
2021/12/10 07:49:47;;;;;;;19.70;13.55;;;1.50;99.90;;;;;;4993378;28;20568;-60
2021/12/10 07:52:21;;;;;;;21.20;15.90;;;1.50;99.90;;;;;;5010549;28;20128;-60
2021/12/10 07:54:48;;;;;;;18.33;14.43;;;1.60;99.90;;;;;;5007340;28;20046;-60
2021/12/10 07:57:17;;;;;;;20.67;15.10;;;1.60;99.90;;;;;;5000777;28;20054;-60
2021/12/10 07:59:44;;;;;;;19.00;12.73;;;1.60;99.90;;;;;;4985215;28;20382;-61
2021/12/10 08:02:11;;;;;;;19.40;14.73;;;1.70;99.90;;;;;;4988538;28;20136;-47
2021/12/10 08:04:37;;;;;;;19.65;13.43;;;1.70;99.90;;;;;;5004326;28;20054;-47
2021/12/10 08:07:05;;;;;;;24.00;15.20;;;1.70;99.90;;;;;;4965592;28;20049;-47
2021/12/10 08:09:31;;;;;;;20.40;14.23;;;1.70;99.90;;;;;;4984916;28;20497;-60
2021/12/10 08:11:57;;;;;;;19.45;13.35;;;1.70;99.90;;;;;;4999591;28;20092;-60
2021/12/10 08:14:24;;;;;;;20.35;13.50;;;1.70;99.90;;;;;;4988575;28;20051;-60
2021/12/10 08:16:50;;;;;;;21.67;14.18;;;1.80;99.90;;;;;;4997780;28;20555;-59
2021/12/10 08:19:16;;;;;;;17.27;12.13;;;1.80;99.90;;;;;;4997115;28;20528;-59
2021/12/10 08:21:44;;;;;;;16.63;13.00;;;1.90;99.90;;;;;;4963399;28;20058;-60
2021/12/10 08:24:10;;;;;;;18.02;12.80;;;2.00;99.90;;;;;;4969168;28;20101;-60
2021/12/10 08:26:37;;;;;;;17.73;13.02;;;2.10;99.90;;;;;;4973374;28;20061;-60
2021/12/10 08:29:06;;;;;;;16.55;12.80;;;2.20;99.90;;;;;;5002937;28;20093;-60
2021/12/10 08:31:33;;;;;;;15.88;12.07;;;2.50;99.90;;;;;;4992399;28;20124;-60
2021/12/10 08:34:00;;;;;;;16.48;11.23;;;2.80;99.90;;;;;;5008770;28;20129;-60
2021/12/10 08:36:28;;;;;;;18.77;12.18;;;3.00;99.90;;;;;;4974347;28;20073;-60
2021/12/10 08:38:54;;;;;;;14.00;10.48;;;3.20;99.90;;;;;;4989508;28;20054;-60
2021/12/10 08:41:24;;;;;;;14.43;10.05;;;3.20;99.90;;;;;;5010485;28;20470;-59
2021/12/10 08:43:53;;;;;;;16.08;10.02;;;3.20;99.90;;;;;;5010151;28;20385;-60
2021/12/10 08:46:20;;;;;;;12.07;9.85;;;3.30;99.90;;;;;;5010239;28;20097;-59
2021/12/10 08:48:48;;;;;;;13.52;10.55;;;3.40;99.90;;;;;;4992238;28;20042;-59
2021/12/10 08:51:22;;;;;;;17.20;9.57;;;3.40;99.90;;;;;;4982848;28;20049;-60
2021/12/10 08:53:49;;;;;;;14.93;10.05;;;3.70;99.90;;;;;;4984334;28;20493;-60
2021/12/10 08:56:16;;;;;;;12.40;9.82;;;3.80;99.90;;;;;;4978276;28;20058;-60
2021/12/10 08:58:42;;;;;;;11.98;9.70;;;3.90;99.90;;;;;;4979626;28;20054;-59
2021/12/10 09:01:13;;;;;;;15.20;8.75;;;3.70;99.90;;;;;;4950331;28;20038;-59
2021/12/10 09:03:41;;;;;;;11.60;8.85;;;3.90;99.90;;;;;;4998642;28;20057;-60
2021/12/10 09:06:09;;;;;;;11.85;9.43;;;4.10;99.90;;;;;;4982722;28;20060;-60
2021/12/10 09:08:36;;;;;;;12.63;7.97;;;4.10;99.90;;;;;;4967597;28;20133;-60
2021/12/10 09:11:03;;;;;;;11.25;8.43;;;4.20;99.90;;;;;;4999293;28;20045;-60
2021/12/10 09:13:30;;;;;;;11.88;8.25;;;4.20;99.90;;;;;;4979289;28;20596;-60
2021/12/10 09:16:00;;;;;;;13.25;8.82;;;4.20;99.90;;;;;;5005559;28;20093;-60
2021/12/10 09:18:27;;;;;;;13.60;9.05;;;4.10;99.90;;;;;;4973334;28;20530;-60
2021/12/10 09:20:57;;;;;;;10.60;8.68;;;4.00;99.90;;;;;;4961585;28;20359;-62
2021/12/10 09:23:25;;;;;;;12.40;8.93;;;4.00;99.90;;;;;;4960106;28;20054;-60
2021/12/10 09:25:55;;;;;;;14.07;8.85;;;4.00;99.90;;;;;;4944569;28;20085;-59
2021/12/10 09:28:21;;;;;;;10.85;8.75;;;4.10;99.90;;;;;;4975137;28;20043;-60
2021/12/10 09:30:50;;;;;;;14.35;8.25;;;4.20;99.90;;;;;;4968312;28;20088;-60
2021/12/10 09:33:17;;;;;;;11.85;8.23;;;4.20;99.90;;;;;;4953109;28;20061;-60
2021/12/10 09:35:44;;;;;;;11.15;7.57;;;4.30;99.90;;;;;;4959370;28;20509;-60
2021/12/10 09:38:10;;;;;;;13.68;8.60;;;4.40;99.90;;;;;;4956116;28;20054;-66
2021/12/10 09:41:00;;;;;;;9.80;8.25;;;4.50;99.90;;;;;;4970656;28;20046;-49
2021/12/10 09:43:27;;;;;;;11.45;8.00;;;4.50;99.90;;;;;;4985210;28;20126;-51
2021/12/10 09:45:54;;;;;;;11.63;7.72;;;4.40;99.90;;;;;;4964939;28;20038;-49
2021/12/10 09:48:22;;;;;;;13.27;8.65;;;4.30;99.90;;;;;;4977223;28;20074;-60
2021/12/10 09:50:54;;;;;;;11.15;7.88;;;4.30;99.90;;;;;;4952747;28;20052;-60
2021/12/10 09:53:21;;;;;;;14.55;9.45;;;4.50;99.90;;;;;;4977874;28;20046;-60
2021/12/10 09:55:48;;;;;;;11.60;7.82;;;4.70;99.90;;;;;;4970099;28;20054;-59
2021/12/10 09:58:15;;;;;;;11.00;7.55;;;5.10;99.90;;;;;;4982087;28;20054;-59
2021/12/10 10:00:53;;;;;;;13.10;7.47;;;5.10;99.90;;;;;;4987788;28;20054;-60
2021/12/10 10:03:24;;;;;;;9.95;7.40;;;5.10;99.90;;;;;;4982121;28;20108;-59
2021/12/10 10:05:51;;;;;;;10.73;7.65;;;5.10;99.90;;;;;;4988821;28;20081;-59
2021/12/10 10:08:21;;;;;;;11.32;8.00;;;5.00;99.90;;;;;;4976110;28;20085;-59
2021/12/10 10:10:50;;;;;;;11.65;7.80;;;5.20;99.90;;;;;;4959423;28;20062;-59
2021/12/10 10:13:20;;;;;;;11.10;7.57;;;5.20;99.90;;;;;;4975736;28;20062;-58
2021/12/10 10:16:20;;;;;;;10.77;6.40;;;5.30;99.90;;;;;;4932380;28;20053;-46
2021/12/10 10:18:48;;;;;;;8.88;6.20;;;5.70;99.90;;;;;;5012058;28;20084;-59
2021/12/10 10:21:19;;;;;;;11.85;6.32;;;6.10;99.90;;;;;;5012575;28;20049;-59
2021/12/10 10:23:47;;;;;;;11.30;6.80;;;6.50;99.90;;;;;;4982955;28;20047;-59
2021/12/10 10:26:25;;;;;;;10.05;6.50;;;6.40;99.90;;;;;;4995180;28;20045;-59
2021/12/10 10:28:52;;;;;;;9.55;6.13;;;6.50;99.90;;;;;;5009711;28;20381;-59
2021/12/10 10:31:22;;;;;;;9.32;5.97;;;6.40;99.90;;;;;;4983045;28;20089;-59
2021/12/10 10:33:51;;;;;;;11.77;5.68;;;6.20;99.90;;;;;;4993729;28;20057;-59
2021/12/10 10:36:21;;;;;;;8.32;6.00;;;6.10;99.90;;;;;;5011343;28;20104;-59
2021/12/10 10:38:58;;;;;;;8.00;5.90;;;6.00;99.90;;;;;;4981425;28;20087;-46
2021/12/10 10:41:27;;;;;;;8.15;6.45;;;6.10;99.90;;;;;;4967857;28;20057;-55
2021/12/10 10:43:56;;;;;;;7.60;6.43;;;6.00;99.90;;;;;;4963605;28;20078;-48
2021/12/10 10:46:22;;;;;;;10.88;6.25;;;6.00;99.90;;;;;;4964366;28;20125;-48
2021/12/10 10:48:49;;;;;;;8.95;5.88;;;6.20;99.90;;;;;;4983797;28;20042;-59
2021/12/10 10:51:33;;;;;;;9.05;5.60;;;6.60;99.90;;;;;;4977165;28;20640;-59
2021/12/10 10:54:04;;;;;;;7.13;5.63;;;7.00;99.90;;;;;;4960293;28;20077;-59
2021/12/10 10:56:44;;;;;;;9.23;5.85;;;7.40;99.90;;;;;;4995392;28;20496;-60
2021/12/10 10:59:17;;;;;;;8.93;5.13;;;7.90;99.90;;;;;;4968087;28;20129;-59
2021/12/10 11:01:57;;;;;;;8.75;5.93;;;8.10;99.90;;;;;;4976941;28;20405;-59
2021/12/10 11:04:28;;;;;;;7.88;5.90;;;8.10;99.90;;;;;;4998418;28;20049;-59
2021/12/10 11:07:05;;;;;;;7.13;4.95;;;7.80;99.90;;;;;;4963724;28;20065;-60
2021/12/10 11:09:34;;;;;;;10.10;5.78;;;7.80;99.90;;;;;;5006638;28;20061;-60
2021/12/10 11:12:05;;;;;;;8.20;5.30;;;7.60;99.90;;;;;;4984525;28;20081;-45
2021/12/10 11:14:41;;;;;;;7.72;5.47;;;7.50;99.90;;;;;;5000999;28;20049;-45
2021/12/10 11:17:15;;;;;;;10.82;5.20;;;7.70;99.90;;;;;;4987345;28;20149;-45
2021/12/10 11:19:58;;;;;;;9.35;4.75;;;7.70;99.90;;;;;;4973135;28;20060;-59
2021/12/10 11:22:25;;;;;;;7.68;5.15;;;7.60;99.90;;;;;;4989083;28;20042;-61
2021/12/10 11:25:00;;;;;;;9.25;4.68;;;7.40;99.90;;;;;;4941497;28;20046;-59
2021/12/10 11:27:31;;;;;;;9.10;5.75;;;7.30;99.90;;;;;;4975808;28;20145;-59
2021/12/10 11:30:08;;;;;;;6.28;4.40;;;7.00;99.90;;;;;;4983176;28;20042;-59
2021/12/10 11:32:36;;;;;;;7.45;4.68;;;6.90;99.90;;;;;;4954835;28;20050;-59
2021/12/10 11:35:09;;;;;;;6.40;4.40;;;7.00;99.90;;;;;;4969416;28;20042;-59
2021/12/10 11:37:59;;;;;;;8.43;4.55;;;7.20;99.90;;;;;;4946058;28;20069;-59
2021/12/10 11:40:46;;;;;;;7.13;4.63;;;7.00;99.90;;;;;;4949201;28;20136;-48
2021/12/10 11:48:57;;;;;;;9.07;4.30;;;7.90;99.90;;;;;;4989503;28;20065;-58
2021/12/10 11:51:38;;;;;;;8.27;3.57;;;8.00;99.90;;;;;;4973045;28;20116;-59
2021/12/10 11:54:15;;;;;;;10.27;5.07;;;8.00;99.90;;;;;;4981662;28;20058;-47
2021/12/10 11:56:46;;;;;;;7.35;3.97;;;8.20;99.90;;;;;;4956251;28;20061;-59
2021/12/10 11:59:17;;;;;;;8.52;4.00;;;8.40;99.90;;;;;;4984417;28;20049;-45
2021/12/10 12:01:52;;;;;;;10.20;4.35;;;8.40;99.90;;;;;;4987604;28;20050;-48
2021/12/10 12:04:39;;;;;;;7.20;3.85;;;8.60;99.90;;;;;;4971319;28;20685;-48
2021/12/10 12:07:23;;;;;;;10.00;5.18;;;8.70;99.90;;;;;;5004026;28;20080;-46
2021/12/10 12:10:12;;;;;;;8.75;4.40;;;8.80;99.90;;;;;;4992257;28;20053;-60
2021/12/10 12:12:48;;;;;;;8.10;3.53;;;9.10;99.90;;;;;;4998039;28;20517;-60
2021/12/10 12:15:27;;;;;;;9.88;3.50;;;9.00;99.90;;;;;;4958829;28;20062;-58
2021/12/10 12:18:04;;;;;;;6.90;3.63;;;9.20;99.90;;;;;;4985234;28;20688;-60
2021/12/10 12:20:38;;;;;;;6.28;3.22;;;9.50;99.90;;;;;;4994649;28;20046;-49
2021/12/10 12:26:07;;;;;;;10.88;3.78;;;9.80;99.90;;;;;;4939942;28;20046;-59
2021/12/10 12:28:39;;;;;;;10.45;3.70;;;9.90;99.90;;;;;;4958190;28;20049;-57
2021/12/10 12:31:10;;;;;;;7.03;4.35;;;9.80;99.90;;;;;;4986282;28;20141;-50
2021/12/10 12:33:58;;;;;;;5.93;3.43;;;9.40;99.90;;;;;;4958896;28;20151;-50
2021/12/10 12:36:30;;;;;;;6.45;3.67;;;8.90;99.90;;;;;;4991804;28;20054;-46
2021/12/10 12:38:57;;;;;;;6.75;3.28;;;8.40;99.90;;;;;;4952318;28;20065;-59
2021/12/10 12:41:53;;;;;;;7.72;3.22;;;8.00;99.90;;;;;;4987307;28;20043;-60
2021/12/10 12:44:36;;;;;;;7.47;3.30;;;7.60;99.90;;;;;;4966478;28;20085;-59
2021/12/10 12:47:12;;;;;;;6.88;3.47;;;7.60;99.90;;;;;;4985525;28;20050;-60
2021/12/10 12:49:47;;;;;;;6.70;3.17;;;7.70;99.90;;;;;;4994777;28;20076;-60
2021/12/10 12:52:15;;;;;;;6.32;3.03;;;8.00;99.90;;;;;;5006169;28;20081;-46
2021/12/10 12:55:00;;;;;;;7.68;4.10;;;8.20;99.90;;;;;;4980313;28;20042;-45
2021/12/10 12:57:52;;;;;;;8.73;3.40;;;8.50;99.90;;;;;;5002985;28;20147;-46
2021/12/10 13:00:36;;;;;;;7.55;3.47;;;8.80;99.90;;;;;;4965444;28;20085;-46
2021/12/10 13:03:07;;;;;;;6.57;3.20;;;9.20;99.90;;;;;;5005555;28;20101;-61
2021/12/10 13:05:50;;;;;;;7.57;3.95;;;9.10;99.90;;;;;;4950806;28;20043;-60
2021/12/10 13:08:24;;;;;;;9.90;3.92;;;9.10;99.90;;;;;;4986113;28;20048;-60
2021/12/10 13:11:13;;;;;;;6.63;3.60;;;8.80;99.90;;;;;;5004045;28;20100;-60
2021/12/10 13:13:44;;;;;;;9.90;4.20;;;8.70;99.90;;;;;;4946240;28;20402;-48
2021/12/10 13:16:26;;;;;;;6.95;2.97;;;8.60;99.90;;;;;;4972883;28;20100;-60